Time;durP1;ratioP1;P1;durP2;ratioP2;P2;SDS_P1;SDS_P2;PMS_P1;PMS_P2;Temp;Humidity;BMP_temperature;BMP_pressure;BME280_temperature;BME280_humidity;BME280_pressure;Samples;Min_cycle;Max_cycle;Signal;HPM_P1;HPM_P2
2022/06/09 00:03:56;;;;;;;0.40;0.30;;;;;;;;;;20862521;28;20289;-72
2022/06/09 00:13:58;;;;;;;1.43;0.40;;;;;;;;;;20878640;28;20761;-72
2022/06/09 00:24:01;;;;;;;2.13;0.40;;;;;;;;;;20878191;28;20246;-72
2022/06/09 00:34:03;;;;;;;0.60;0.40;;;;;;;;;;20877139;28;20231;-72
2022/06/09 00:44:16;;;;;;;0.63;0.43;;;;;;;;;;20860565;28;20211;-72
2022/06/09 00:54:23;;;;;;;0.20;0.20;;;18.30;99.90;;;;;;20877699;28;20218;-72
2022/06/09 01:04:31;;;;;;;0.30;0.30;;;18.20;99.90;;;;;;20853976;28;20292;-74
2022/06/09 01:14:33;;;;;;;1.03;0.30;;;;;;;;;;20874992;28;20269;-74
2022/06/09 01:24:35;;;;;;;1.63;0.40;;;;;;;;;;20857709;28;20215;-74
2022/06/09 01:34:47;;;;;;;0.93;0.40;;;;;;;;;;20872676;28;20280;-74
2022/06/09 01:44:50;;;;;;;1.67;0.40;;;18.00;99.90;;;;;;20856341;28;20263;-74
2022/06/09 01:54:53;;;;;;;1.70;0.43;;;;;;;;;;20859829;28;20222;-74
2022/06/09 02:05:00;;;;;;;0.40;0.20;;;;;;;;;;20855456;28;20227;-74
2022/06/09 02:15:02;;;;;;;0.20;0.20;;;17.70;99.90;;;;;;20854929;28;20360;-73
2022/06/09 02:25:04;;;;;;;1.93;0.67;;;17.70;99.90;;;;;;20854648;28;20211;-74
2022/06/09 02:35:06;;;;;;;0.80;0.40;;;17.60;99.90;;;;;;20838137;28;20217;-75
2022/06/09 02:45:09;;;;;;;0.70;0.43;;;17.70;99.90;;;;;;20855625;28;20202;-76
2022/06/09 02:55:13;;;;;;;0.90;0.50;;;;;;;;;;20868670;28;20767;-73
2022/06/09 03:05:18;;;;;;;0.40;0.30;;;;;;;;;;20885203;28;20360;-73
2022/06/09 03:15:22;;;;;;;1.00;0.50;;;17.30;99.90;;;;;;20867489;28;20217;-73
2022/06/09 03:25:24;;;;;;;0.43;0.30;;;17.40;99.90;;;;;;20867249;28;20556;-73
2022/06/09 03:35:26;;;;;;;0.73;0.53;;;;;;;;;;20874492;28;20271;-75
2022/06/09 03:45:31;;;;;;;0.37;0.30;;;17.60;99.90;;;;;;20891198;28;20253;-75
2022/06/09 03:55:33;;;;;;;0.47;0.30;;;;;;;;;;20898830;28;20252;-76
2022/06/09 04:05:34;;;;;;;1.23;0.40;;;;;;;;;;20863990;28;20240;-75
2022/06/09 04:15:37;;;;;;;0.87;0.40;;;;;;;;;;20879834;28;20267;-75
2022/06/09 04:25:39;;;;;;;1.53;0.40;;;;;;;;;;20862135;28;20214;-75
2022/06/09 04:35:41;;;;;;;0.33;0.33;;;;;;;;;;20884698;28;20222;-71
2022/06/09 04:45:43;;;;;;;2.70;0.80;;;;;;;;;;20857236;28;20210;-72
2022/06/09 04:55:45;;;;;;;3.47;0.63;;;;;;;;;;20859210;28;20275;-73
2022/06/09 05:05:49;;;;;;;2.03;1.10;;;17.00;99.90;;;;;;20874712;28;20703;-71
2022/06/09 05:15:53;;;;;;;1.23;0.50;;;17.10;99.90;;;;;;20858129;28;20741;-71
2022/06/09 05:25:58;;;;;;;2.00;0.50;;;17.10;99.90;;;;;;20857731;28;20283;-71
2022/06/09 05:36:00;;;;;;;0.97;0.60;;;16.80;99.90;;;;;;20858088;28;20295;-72
2022/06/09 05:46:03;;;;;;;1.03;0.50;;;17.10;99.90;;;;;;20856525;28;20209;-71
2022/06/09 05:56:06;;;;;;;1.03;0.67;;;17.10;99.90;;;;;;20872075;28;20238;-71
2022/06/09 06:16:28;;;;;;;2.57;0.47;;;17.10;99.90;;;;;;20889627;28;20275;-71
2022/06/09 06:26:31;;;;;;;1.63;0.70;;;17.40;99.90;;;;;;20868040;28;20750;-72
2022/06/09 06:36:33;;;;;;;2.17;0.87;;;;;;;;;;20876380;28;20693;-72
2022/06/09 06:46:36;;;;;;;2.63;0.67;;;;;;;;;;20870654;28;20551;-70
2022/06/09 06:56:38;;;;;;;5.13;1.10;;;;;;;;;;20870290;28;20581;-72
2022/06/09 07:06:40;;;;;;;1.53;0.60;;;;;;;;;;20879718;28;20223;-71
2022/06/09 07:16:42;;;;;;;0.80;0.50;;;;;;;;;;20854389;28;20218;-71
2022/06/09 07:27:02;;;;;;;2.23;0.70;;;;;;;;;;20888464;28;20251;-71
2022/06/09 07:37:05;;;;;;;2.77;0.67;;;17.50;99.90;;;;;;20869666;28;20203;-71
2022/06/09 07:47:07;;;;;;;0.40;0.40;;;;;;;;;;20858777;28;20612;-70
2022/06/09 07:57:11;;;;;;;2.53;0.60;;;;;;;;;;20892040;28;20246;-70
2022/06/09 08:07:13;;;;;;;1.23;0.60;;;;;;;;;;20871695;28;20210;-71
2022/06/09 08:17:16;;;;;;;1.37;0.80;;;;;;;;;;20879164;28;20226;-71
2022/06/09 08:27:18;;;;;;;0.93;0.57;;;;;;;;;;20888816;28;20305;-71
2022/06/09 08:37:40;;;;;;;0.93;0.50;;;;;;;;;;20829958;28;20244;-71
2022/06/09 08:47:53;;;;;;;1.63;0.53;;;;;;;;;;20863048;28;20225;-71
2022/06/09 08:57:58;;;;;;;3.80;0.60;;;;;;;;;;20859737;28;20210;-71
2022/06/09 09:08:03;;;;;;;0.90;0.47;;;18.50;99.90;;;;;;20858524;28;20214;-71
2022/06/09 09:18:11;;;;;;;1.27;0.40;;;;;;;;;;20870970;28;20214;-71
2022/06/09 09:28:22;;;;;;;2.30;0.67;;;18.50;99.90;;;;;;20879565;28;20765;-70
2022/06/09 09:38:26;;;;;;;0.53;0.40;;;;;;;;;;20859516;28;20635;-71
2022/06/09 09:48:33;;;;;;;1.13;0.43;;;;;;;;;;20860250;28;20217;-71
2022/06/09 09:58:41;;;;;;;2.47;0.50;;;18.70;99.90;;;;;;20886298;28;20682;-70
2022/06/09 10:09:00;;;;;;;2.10;0.60;;;19.70;99.90;;;;;;20853070;28;20714;-70
2022/06/09 10:19:04;;;;;;;1.20;0.57;;;;;;;;;;20870854;28;20637;-70
2022/06/09 10:29:16;;;;;;;2.20;0.80;;;;;;;;;;20871247;28;20299;-70
2022/06/09 10:39:18;;;;;;;0.90;0.40;;;;;;;;;;20854211;28;20211;-70
2022/06/09 10:59:55;;;;;;;1.07;0.40;;;;;;;;;;20855617;28;20216;-72
2022/06/09 11:10:13;;;;;;;1.00;0.43;;;20.80;99.90;;;;;;20871268;28;20222;-71
2022/06/09 11:20:41;;;;;;;2.33;0.80;;;;;;;;;;20850053;28;20209;-71
2022/06/09 11:31:06;;;;;;;1.73;0.60;;;;;;;;;;20820019;28;20231;-72
2022/06/09 11:41:20;;;;;;;1.67;0.57;;;20.70;99.90;;;;;;20895476;28;20252;-72
2022/06/09 11:51:25;;;;;;;1.10;0.40;;;21.10;99.90;;;;;;20865828;28;20223;-72
2022/06/09 12:01:39;;;;;;;0.30;0.30;;;20.80;99.90;;;;;;20850823;28;20777;-72
2022/06/09 12:11:49;;;;;;;1.17;0.40;;;;;;;;;;20894933;28;20226;-72
2022/06/09 12:21:59;;;;;;;1.30;0.60;;;;;;;;;;20878151;28;20247;-72
2022/06/09 12:32:04;;;;;;;1.30;0.60;;;;;;;;;;20877559;28;20778;-72
2022/06/09 12:42:16;;;;;;;1.03;0.50;;;;;;;;;;20877168;28;20216;-71
2022/06/09 12:52:39;;;;;;;1.17;0.40;;;20.80;99.90;;;;;;20860563;28;20219;-72
2022/06/09 13:02:41;;;;;;;2.70;0.80;;;;;;;;;;20843325;28;20757;-72
2022/06/09 13:12:53;;;;;;;0.73;0.30;;;21.30;99.90;;;;;;20837457;28;20226;-71
2022/06/09 13:22:59;;;;;;;0.40;0.20;;;;;;;;;;20792549;28;20263;-72
2022/06/09 13:33:01;;;;;;;0.60;0.33;;;;;;;;;;20833429;28;20278;-72
2022/06/09 13:43:03;;;;;;;1.07;0.30;;;;;;;;;;20876205;28;20223;-72
2022/06/09 13:53:24;;;;;;;1.63;0.50;;;22.10;99.90;;;;;;20861661;28;20283;-71
2022/06/09 14:03:26;;;;;;;1.25;0.50;;;;;;;;;;20855466;28;20286;-72
2022/06/09 14:13:28;;;;;;;1.80;0.50;;;;;;;;;;20854240;28;20351;-71
2022/06/09 14:23:32;;;;;;;1.20;0.30;;;;;;;;;;20847915;28;20225;-71
2022/06/09 14:33:35;;;;;;;0.75;0.50;;;;;;;;;;20867583;28;20220;-71
2022/06/09 14:43:37;;;;;;;1.35;0.38;;;;;;;;;;20857964;28;20215;-71
2022/06/09 14:53:39;;;;;;;0.55;0.40;;;;;;;;;;20856139;28;20299;-71
2022/06/09 15:03:42;;;;;;;1.95;0.40;;;23.00;99.90;;;;;;20817822;28;20268;-71
2022/06/09 15:13:43;;;;;;;1.05;0.40;;;;;;;;;;20815040;28;20219;-71
2022/06/09 15:23:48;;;;;;;1.33;0.40;;;;;;;;;;20861799;28;20268;-71
2022/06/09 15:33:50;;;;;;;1.88;0.45;;;;;;;;;;20856542;28;20279;-71
2022/06/09 15:43:52;;;;;;;0.77;0.35;;;;;;;;;;20875960;28;20258;-71
2022/06/09 15:53:56;;;;;;;3.83;0.30;;;22.70;99.90;;;;;;20780483;28;20223;-71
2022/06/09 16:03:58;;;;;;;0.30;0.20;;;;;;;;;;20748980;28;20775;-71
2022/06/09 16:14:00;;;;;;;0.32;0.20;;;;;;;;;;20779138;28;20286;-70
2022/06/09 16:24:02;;;;;;;0.52;0.30;;;;;;;;;;20838977;28;20221;-71
2022/06/09 16:34:05;;;;;;;0.60;0.30;;;;;;;;;;20876515;28;20242;-71
2022/06/09 16:44:07;;;;;;;0.30;0.20;;;;;;;;;;20860275;28;20218;-70
2022/06/09 16:54:09;;;;;;;0.20;0.20;;;;;;;;;;20867450;28;20585;-71
2022/06/09 17:04:11;;;;;;;1.20;0.20;;;;;;;;;;20894973;28;20293;-71
2022/06/09 17:14:14;;;;;;;2.60;0.30;;;21.20;99.90;;;;;;20869880;28;20913;-70
2022/06/09 17:24:16;;;;;;;0.90;0.30;;;;;;;;;;20896868;28;20285;-71
2022/06/09 17:34:18;;;;;;;0.77;0.30;;;;;;;;;;20847846;28;20602;-70
2022/06/09 17:44:20;;;;;;;1.65;0.40;;;;;;;;;;20883297;28;20279;-70
2022/06/09 17:54:23;;;;;;;1.00;0.50;;;;;;;;;;20875281;28;20301;-69
2022/06/09 18:04:25;;;;;;;0.47;0.20;;;;;;;;;;20847932;28;20239;-70
2022/06/09 18:14:27;;;;;;;1.75;0.50;;;;;;;;;;20851176;28;20221;-70
2022/06/09 18:24:29;;;;;;;2.90;0.30;;;;;;;;;;20860643;28;20251;-69
2022/06/09 18:34:34;;;;;;;1.43;0.30;;;;;;;;;;20862304;28;20293;-70
2022/06/09 18:44:36;;;;;;;0.50;0.30;;;21.30;99.90;;;;;;20877968;28;20381;-69
2022/06/09 18:54:38;;;;;;;0.63;0.30;;;;;;;;;;20840599;28;20227;-72
2022/06/09 19:04:40;;;;;;;1.63;0.40;;;;;;;;;;20860420;28;20214;-70
2022/06/09 19:14:43;;;;;;;1.13;0.30;;;;;;;;;;20945693;22;20234;-76
2022/06/09 19:24:44;;;;;;;0.93;0.50;;;;;;;;;;21148495;28;20534;-75
2022/06/09 19:34:46;;;;;;;0.50;0.40;;;;;;;;;;21107921;28;20764;-75
2022/06/09 19:44:48;;;;;;;0.87;0.60;;;;;;;;;;21050126;28;20274;-74
2022/06/09 19:54:51;;;;;;;1.30;0.50;;;;;;;;;;21071341;28;20795;-75
2022/06/09 20:04:53;;;;;;;0.70;0.50;;;;;;;;;;21051419;28;20920;-75
2022/06/09 20:14:55;;;;;;;1.80;0.60;;;;;;;;;;21018175;28;20235;-74
2022/06/09 20:24:57;;;;;;;0.47;0.37;;;;;;;;;;21001302;28;20210;-74
2022/06/09 20:35:00;;;;;;;0.70;0.30;;;;;;;;;;21029263;28;20684;-76
2022/06/09 20:45:03;;;;;;;1.40;0.70;;;19.80;99.90;;;;;;21027207;28;20282;-74
2022/06/09 20:55:05;;;;;;;1.73;0.47;;;;;;;;;;21020619;28;20275;-74
2022/06/09 21:05:12;;;;;;;1.00;0.40;;;19.70;99.90;;;;;;21034484;28;20273;-75
2022/06/09 21:25:34;;;;;;;3.53;0.67;;;;;;;;;;21007068;28;20286;-74
2022/06/09 21:35:38;;;;;;;1.83;0.43;;;;;;;;;;20952894;28;20274;-74
2022/06/09 21:45:40;;;;;;;0.67;0.50;;;;;;;;;;20974757;28;20209;-74
2022/06/09 21:55:43;;;;;;;1.07;0.37;;;;;;;;;;20965911;28;20224;-74
2022/06/09 22:05:46;;;;;;;1.33;0.40;;;;;;;;;;20988516;28;20232;-74
2022/06/09 22:15:49;;;;;;;2.10;0.50;;;;;;;;;;21140395;28;20333;-74
2022/06/09 22:25:51;;;;;;;1.17;0.43;;;;;;;;;;21132867;28;20259;-74
2022/06/09 22:35:52;;;;;;;0.73;0.40;;;;;;;;;;21115942;28;20225;-73
2022/06/09 22:45:54;;;;;;;3.40;0.50;;;;;;;;;;21134457;28;20210;-74
2022/06/09 22:56:09;;;;;;;1.07;0.40;;;;;;;;;;21133574;28;20267;-75
2022/06/09 23:06:17;;;;;;;2.03;0.50;;;18.50;99.90;;;;;;21160181;28;20217;-73
2022/06/09 23:16:33;;;;;;;1.03;0.33;;;18.60;99.90;;;;;;21168848;28;20213;-74
2022/06/09 23:26:35;;;;;;;0.90;0.60;;;;;;;;;;21167974;28;20237;-74
2022/06/09 23:36:36;;;;;;;0.67;0.40;;;;;;;;;;21165837;28;20582;-74
2022/06/09 23:46:38;;;;;;;1.83;0.50;;;;;;;;;;21146802;28;20209;-74
2022/06/09 23:56:40;;;;;;;0.97;0.50;;;;;;;;;;21137094;28;20640;-74
